createdAt,value
2023-04-05T00:05:36.456Z,10.75
2023-04-05T00:11:39.978Z,11.70
2023-04-05T00:17:44.870Z,10.55
2023-04-05T00:23:49.025Z,11.20
2023-04-05T00:29:52.455Z,11.48
2023-04-05T00:35:57.343Z,15.65
2023-04-05T00:42:01.319Z,12.63
2023-04-05T00:48:05.710Z,14.07
2023-04-05T00:54:11.725Z,14.38
2023-04-05T01:00:16.064Z,14.00
2023-04-05T01:06:24.566Z,14.65
2023-04-05T01:12:32.217Z,13.45
2023-04-05T01:18:36.556Z,13.38
2023-04-05T01:24:46.887Z,12.43
2023-04-05T01:30:54.158Z,12.77
2023-04-05T01:36:58.379Z,13.52
2023-04-05T01:43:03.342Z,14.48
2023-04-05T01:49:08.194Z,13.65
2023-04-05T01:55:12.140Z,14.45
2023-04-05T02:01:15.732Z,14.63
2023-04-05T02:07:20.560Z,15.27
2023-04-05T02:13:24.329Z,14.25
2023-04-05T02:19:29.905Z,14.55
2023-04-05T02:25:34.965Z,14.25
2023-04-05T02:31:38.817Z,14.57
2023-04-05T02:37:42.900Z,14.98
2023-04-05T02:43:47.646Z,14.55
2023-04-05T02:49:51.376Z,14.15
2023-04-05T02:55:55.391Z,15.07
2023-04-05T03:02:00.256Z,15.30
2023-04-05T03:08:03.723Z,15.30
2023-04-05T03:14:07.231Z,15.57
2023-04-05T03:20:12.758Z,15.57
2023-04-05T03:26:17.274Z,16.40
2023-04-05T03:32:20.658Z,15.90
2023-04-05T03:38:25.861Z,14.90
2023-04-05T03:44:29.738Z,13.93
2023-04-05T03:50:33.318Z,15.85
2023-04-05T03:56:38.311Z,15.65
2023-04-05T04:02:44.670Z,16.45
2023-04-05T04:08:48.082Z,15.35
2023-04-05T04:14:52.883Z,15.95
2023-04-05T04:20:56.960Z,15.60
2023-04-05T04:27:00.353Z,16.02
2023-04-05T04:33:08.271Z,16.38
2023-04-05T04:39:14.018Z,17.70
2023-04-05T04:45:18.070Z,16.85
2023-04-05T04:51:22.816Z,17.08
2023-04-05T04:57:27.211Z,17.73
2023-04-05T05:03:30.623Z,18.13
2023-04-05T05:09:35.416Z,18.42
2023-04-05T05:15:42.409Z,18.85
2023-04-05T05:21:46.389Z,21.42
2023-04-05T05:27:51.637Z,22.42
2023-04-05T05:33:55.092Z,22.00
2023-04-05T05:39:59.139Z,23.27
2023-04-05T05:46:04.319Z,22.65
2023-04-05T05:52:07.745Z,22.60
2023-04-05T05:58:12.313Z,22.98
2023-04-05T06:04:17.583Z,25.77
2023-04-05T06:10:21.271Z,25.67
2023-04-05T06:16:25.024Z,25.90
2023-04-05T06:22:30.685Z,24.02
2023-04-05T06:28:34.247Z,26.15
2023-04-05T06:34:37.815Z,28.50
2023-04-05T06:40:42.820Z,30.00
2023-04-05T06:46:46.823Z,30.90
2023-04-05T06:52:50.389Z,30.13
2023-04-05T06:58:55.802Z,36.50
2023-04-05T07:05:05.874Z,39.63
2023-04-05T07:11:09.506Z,37.55
2023-04-05T07:17:14.546Z,37.03
2023-04-05T07:23:18.296Z,35.70
2023-04-05T07:29:21.901Z,30.40
2023-04-05T07:35:26.997Z,27.85
2023-04-05T07:41:33.023Z,25.73
2023-04-05T07:47:36.604Z,21.98
2023-04-05T07:53:41.493Z,19.25
2023-04-05T07:59:44.897Z,21.08
2023-04-05T08:05:48.344Z,21.85
2023-04-05T08:11:53.234Z,21.45
2023-04-05T08:17:56.717Z,20.88
2023-04-05T08:24:00.250Z,22.27
2023-04-05T08:30:06.300Z,17.35
2023-04-05T08:36:10.870Z,15.73
2023-04-05T08:42:17.703Z,12.63
2023-04-05T08:48:23.133Z,12.02
2023-04-05T08:54:26.532Z,13.02
2023-04-05T09:00:30.522Z,13.60
2023-04-05T09:06:35.614Z,13.23
2023-04-05T09:12:40.370Z,9.77
2023-04-05T09:18:44.332Z,9.77
2023-04-05T09:24:49.182Z,8.20
2023-04-05T09:30:52.641Z,8.60
2023-04-05T09:36:56.144Z,8.18
2023-04-05T09:43:00.914Z,8.07
2023-04-05T09:49:06.640Z,9.05
2023-04-05T09:55:10.803Z,8.73
2023-04-05T10:01:17.422Z,8.27
2023-04-05T10:07:21.614Z,8.45
2023-04-05T10:13:25.530Z,8.35
2023-04-05T10:19:34.924Z,7.85
2023-04-05T10:25:46.043Z,8.15
2023-04-05T10:31:53.135Z,8.18
2023-04-05T10:38:06.081Z,8.40
2023-04-05T10:44:25.064Z,8.00
2023-04-05T10:50:30.072Z,8.70
2023-04-05T10:56:35.153Z,8.70
2023-04-05T11:02:39.043Z,7.75
2023-04-05T11:08:43.617Z,9.27
2023-04-05T11:14:48.503Z,8.88
2023-04-05T11:20:56.096Z,9.25
2023-04-05T11:26:59.694Z,9.13
2023-04-05T11:33:09.826Z,9.27
2023-04-05T11:39:28.942Z,8.98
2023-04-05T11:45:33.140Z,10.00
2023-04-05T11:51:38.227Z,8.90
2023-04-05T11:57:41.996Z,8.55
2023-04-05T12:03:45.672Z,8.95
2023-04-05T12:10:03.560Z,8.98
2023-04-05T12:16:08.417Z,7.70
2023-04-05T12:22:11.996Z,8.38
2023-04-05T12:28:17.350Z,8.07
2023-04-05T12:34:25.910Z,7.80
2023-04-05T12:40:30.958Z,9.25
2023-04-05T12:46:42.133Z,9.38
2023-04-05T12:52:58.180Z,7.07
2023-04-05T12:59:01.862Z,8.30
2023-04-05T13:05:07.255Z,6.80
2023-04-05T13:11:10.789Z,4.97
2023-04-05T13:17:14.230Z,8.68
2023-04-05T13:23:19.032Z,8.63
2023-04-05T13:29:22.463Z,9.40
2023-04-05T13:35:26.033Z,5.82
2023-04-05T13:41:30.929Z,5.07
2023-04-05T13:47:34.567Z,7.38
2023-04-05T13:53:38.007Z,9.18
2023-04-05T13:59:43.277Z,9.07
2023-04-05T14:05:49.149Z,10.18
2023-04-05T14:11:53.895Z,10.90
2023-04-05T14:17:58.815Z,9.43
2023-04-05T14:24:02.364Z,8.27
2023-04-05T14:30:06.318Z,8.63
2023-04-05T14:36:11.382Z,8.40
2023-04-05T14:42:14.879Z,8.60
2023-04-05T14:48:18.345Z,5.20
2023-04-05T14:54:23.169Z,5.55
2023-04-05T15:00:26.656Z,6.22
2023-04-05T15:06:30.326Z,5.53
2023-04-05T15:12:35.248Z,6.30
2023-04-05T15:18:38.824Z,7.15
2023-04-05T15:24:42.888Z,5.20
2023-04-05T15:30:47.705Z,7.28
2023-04-05T15:36:51.535Z,5.22
2023-04-05T15:42:56.489Z,4.35
2023-04-05T15:49:01.702Z,8.25
2023-04-05T15:55:05.943Z,6.88
2023-04-05T16:01:09.683Z,7.57
2023-04-05T16:07:14.715Z,8.75
2023-04-05T16:13:18.150Z,9.13
2023-04-05T16:19:24.418Z,7.07
2023-04-05T16:25:29.252Z,9.68
2023-04-05T16:31:33.018Z,9.90
2023-04-05T16:37:37.033Z,10.48
2023-04-05T16:43:41.923Z,11.27
2023-04-05T16:49:45.437Z,8.43
2023-04-05T16:55:48.944Z,7.35
2023-04-05T17:01:53.772Z,10.82
2023-04-05T17:07:57.325Z,10.23
2023-04-05T17:14:01.044Z,10.82
2023-04-05T17:20:06.323Z,10.43
2023-04-05T17:26:09.783Z,10.27
2023-04-05T17:32:13.269Z,9.57
2023-04-05T17:38:18.189Z,10.18
2023-04-05T17:44:21.713Z,10.82
2023-04-05T17:50:25.309Z,9.73
2023-04-05T17:56:30.721Z,9.85
2023-04-05T18:02:37.150Z,9.80
2023-04-05T18:08:40.900Z,11.10
2023-04-05T18:14:45.857Z,10.13
2023-04-05T18:20:51.550Z,10.45
2023-04-05T18:26:55.126Z,13.48
2023-04-05T18:33:00.186Z,13.73
2023-04-05T18:39:03.936Z,12.35
2023-04-05T18:45:07.925Z,19.77
2023-04-05T18:51:12.905Z,20.33
2023-04-05T18:57:16.551Z,21.63
2023-04-05T19:03:20.241Z,21.38
2023-04-05T19:09:26.354Z,21.60
2023-04-05T19:15:29.785Z,23.05
2023-04-05T19:21:33.357Z,21.92
2023-04-05T19:27:38.196Z,25.73
2023-04-05T19:33:41.644Z,21.67
2023-04-05T19:39:45.777Z,22.50
2023-04-05T19:45:51.832Z,21.70
2023-04-05T19:51:56.259Z,22.30
2023-04-05T19:58:00.085Z,21.85
2023-04-05T20:04:12.271Z,22.65
2023-04-05T20:10:17.264Z,22.60
2023-04-05T20:16:25.202Z,21.33
2023-04-05T20:22:30.341Z,23.25
2023-04-05T20:28:38.819Z,22.90
2023-04-05T20:34:43.922Z,22.77
2023-04-05T20:40:48.895Z,21.27
2023-04-05T20:46:53.969Z,20.75
2023-04-05T20:52:57.722Z,22.65
2023-04-05T20:59:02.627Z,21.75
2023-04-05T21:05:06.323Z,22.35
2023-04-05T21:11:11.764Z,21.65
2023-04-05T21:17:16.666Z,22.00
2023-04-05T21:23:21.410Z,22.52
2023-04-05T21:29:24.974Z,21.05
2023-04-05T21:35:29.775Z,19.98
2023-04-05T21:41:33.244Z,19.30
2023-04-05T21:47:36.804Z,19.27
2023-04-05T21:53:41.626Z,20.60
2023-04-05T21:59:45.144Z,19.58
2023-04-05T22:05:48.647Z,20.42
2023-04-05T22:11:53.478Z,19.15
2023-04-05T22:17:57.102Z,18.92
2023-04-05T22:24:00.830Z,18.83
2023-04-05T22:30:08.070Z,19.38
2023-04-05T22:36:12.005Z,19.77
2023-04-05T22:42:15.788Z,20.58
2023-04-05T22:48:20.773Z,21.70
2023-04-05T22:54:24.260Z,21.77
2023-04-05T23:00:28.094Z,21.75
2023-04-05T23:06:33.044Z,21.27
2023-04-05T23:12:36.739Z,21.27
2023-04-05T23:18:41.298Z,20.75
2023-04-05T23:24:46.156Z,20.33
2023-04-05T23:30:49.604Z,19.65
2023-04-05T23:36:53.079Z,19.10
2023-04-05T23:42:57.880Z,18.65
2023-04-05T23:49:01.832Z,20.33
2023-04-05T23:55:05.673Z,19.90
